createdAt,value
2017-09-14T00:00:24.181Z,958.49
2017-09-14T00:01:34.458Z,958.5
2017-09-14T00:02:44.725Z,958.47
2017-09-14T00:03:54.993Z,958.5
2017-09-14T00:05:04.936Z,958.51
2017-09-14T00:06:14.556Z,958.46
2017-09-14T00:07:24.497Z,958.48
2017-09-14T00:08:34.116Z,958.54
2017-09-14T00:09:44.379Z,958.47
2017-09-14T00:10:54.318Z,958.53
2017-09-14T00:12:04.259Z,958.56
2017-09-14T00:13:14.198Z,958.55
2017-09-14T00:14:24.148Z,958.57
2017-09-14T00:15:34.088Z,958.53
2017-09-14T00:16:44.348Z,958.54
2017-09-14T00:17:54.287Z,958.49
2017-09-14T00:19:04.237Z,958.52
2017-09-14T00:20:14.178Z,958.53
2017-09-14T00:21:24.447Z,958.55
2017-09-14T00:22:34.710Z,958.54
2017-09-14T00:23:44.660Z,958.52
2017-09-14T00:24:54.283Z,958.52
2017-09-14T00:26:04.233Z,958.5
2017-09-14T00:27:14.508Z,958.52
2017-09-14T00:28:24.775Z,958.5
2017-09-14T00:29:34.719Z,958.5
2017-09-14T00:30:44.336Z,958.53
2017-09-14T00:31:54.284Z,958.5
2017-09-14T00:33:04.219Z,958.49
2017-09-14T00:34:14.166Z,958.51
2017-09-14T00:35:24.428Z,958.47
2017-09-14T00:36:34.695Z,958.48
2017-09-14T00:37:44.315Z,958.51
2017-09-14T00:38:54.263Z,958.54
2017-09-14T00:40:04.521Z,958.57
2017-09-14T00:41:14.458Z,958.55
2017-09-14T00:42:24.720Z,958.53
2017-09-14T00:43:34.657Z,958.53
2017-09-14T00:44:44.922Z,958.49
2017-09-14T00:45:55.183Z,958.5
2017-09-14T00:47:05.473Z,958.52
2017-09-14T00:48:15.738Z,958.53
2017-09-14T00:49:25.684Z,958.59
2017-09-14T00:50:37.634Z,958.6
2017-09-14T00:51:47.580Z,958.57
2017-09-14T00:52:57.204Z,958.59
2017-09-14T00:54:07.466Z,958.59
2017-09-14T00:55:17.737Z,958.58
2017-09-14T00:56:27.683Z,958.57
2017-09-14T00:57:37.965Z,958.59
2017-09-14T00:58:48.232Z,958.57
2017-09-14T00:59:58.495Z,958.57
2017-09-14T01:01:08.439Z,958.55
2017-09-14T01:02:18.710Z,958.57
2017-09-14T01:03:28.978Z,958.55
2017-09-14T01:04:39.236Z,958.52
2017-09-14T01:05:49.177Z,958.52
2017-09-14T01:06:59.116Z,958.57
2017-09-14T01:08:09.392Z,958.54
2017-09-14T01:09:19.656Z,958.53
2017-09-14T01:10:29.275Z,958.56
2017-09-14T01:11:39.534Z,958.54
2017-09-14T01:12:49.796Z,958.56
2017-09-14T01:14:00.055Z,958.53
2017-09-14T01:15:10.319Z,958.58
2017-09-14T01:16:20.585Z,958.56
2017-09-14T01:17:30.526Z,958.59
2017-09-14T01:18:40.784Z,958.53
2017-09-14T01:19:51.051Z,958.53
2017-09-14T01:21:01.311Z,958.57
2017-09-14T01:22:11.573Z,958.55
2017-09-14T01:23:21.516Z,958.53
2017-09-14T01:24:31.787Z,958.55
2017-09-14T01:30:06.156Z,958.51
2017-09-14T01:31:16.416Z,958.54
2017-09-14T01:32:28.777Z,958.56
2017-09-14T01:33:39.063Z,958.55
2017-09-14T01:34:49.019Z,958.56
2017-09-14T01:35:58.963Z,958.54
2017-09-14T01:37:09.154Z,958.56
2017-09-14T01:38:19.093Z,958.54
2017-09-14T01:39:29.351Z,958.57
2017-09-14T01:40:39.627Z,958.57
2017-09-14T01:41:49.574Z,958.56
2017-09-14T01:42:59.293Z,958.6
2017-09-14T01:44:09.557Z,958.58
2017-09-14T01:45:19.829Z,958.59
2017-09-14T01:46:29.449Z,958.59
2017-09-14T01:47:39.389Z,958.57
2017-09-14T01:48:49.854Z,958.56
2017-09-14T01:50:00.119Z,958.55
2017-09-14T01:51:10.381Z,958.55
2017-09-14T01:52:20.670Z,958.58
2017-09-14T01:53:30.933Z,958.59
2017-09-14T01:54:43.347Z,958.59
2017-09-14T01:55:53.616Z,958.59
2017-09-14T01:57:03.878Z,958.59
2017-09-14T01:58:14.137Z,958.58
2017-09-14T01:59:24.400Z,958.59
2017-09-14T02:00:34.964Z,958.61
2017-09-14T02:01:44.912Z,958.6
2017-09-14T02:02:54.854Z,958.58
2017-09-14T02:04:05.120Z,958.62
2017-09-14T02:05:15.386Z,958.59
2017-09-14T02:06:25.759Z,958.65
2017-09-14T02:07:36.027Z,958.62
2017-09-14T02:08:46.289Z,958.62
2017-09-14T02:09:56.231Z,958.6
2017-09-14T02:11:06.496Z,958.65
2017-09-14T02:12:16.592Z,958.62
2017-09-14T02:13:26.532Z,958.61
2017-09-14T02:14:35.832Z,958.64
2017-09-14T02:15:46.091Z,958.64
2017-09-14T02:16:56.037Z,958.61
2017-09-14T02:18:06.505Z,958.63
2017-09-14T02:19:16.444Z,958.64
2017-09-14T02:20:26.387Z,958.62
2017-09-14T02:21:36.648Z,958.65
2017-09-14T02:22:46.270Z,958.64
2017-09-14T02:23:56.359Z,958.61
2017-09-14T02:25:06.622Z,958.65
2017-09-14T02:26:16.881Z,958.66
2017-09-14T02:27:27.139Z,958.66
2017-09-14T02:28:37.405Z,958.64
2017-09-14T02:29:47.767Z,958.61
2017-09-14T02:30:57.710Z,958.63
2017-09-14T02:32:07.982Z,958.62
2017-09-14T02:33:18.245Z,958.63
2017-09-14T02:34:28.209Z,958.6
2017-09-14T02:35:38.596Z,958.63
2017-09-14T02:36:48.861Z,958.64
2017-09-14T02:37:58.812Z,958.66
2017-09-14T02:39:09.080Z,958.63
2017-09-14T02:40:19.028Z,958.67
2017-09-14T02:41:29.439Z,958.67
2017-09-14T02:42:39.701Z,958.7
2017-09-14T02:43:49.967Z,958.68
2017-09-14T02:44:59.266Z,958.69
2017-09-14T02:46:09.217Z,958.7
2017-09-14T02:47:19.404Z,958.71
2017-09-14T02:48:29.667Z,958.72
2017-09-14T02:49:39.935Z,958.73
2017-09-14T02:50:50.195Z,958.71
2017-09-14T02:52:00.141Z,958.7
2017-09-14T02:53:10.710Z,958.73
2017-09-14T02:54:20.972Z,958.72
2017-09-14T02:55:31.246Z,958.71
2017-09-14T02:56:41.232Z,958.67
2017-09-14T02:57:51.175Z,958.7
2017-09-14T02:59:01.546Z,958.69
2017-09-14T03:00:11.814Z,958.68
2017-09-14T03:01:22.104Z,958.66
2017-09-14T03:02:32.374Z,958.67
2017-09-14T03:03:42.314Z,958.65
2017-09-14T03:04:52.353Z,958.66
2017-09-14T03:06:02.293Z,958.65
2017-09-14T03:07:12.554Z,958.64
2017-09-14T03:08:22.826Z,958.62
2017-09-14T03:09:33.093Z,958.65
2017-09-14T03:10:45.460Z,958.65
2017-09-14T03:11:55.732Z,958.68
2017-09-14T03:13:05.998Z,958.68
2017-09-14T03:14:16.262Z,958.66
2017-09-14T03:15:26.524Z,958.67
2017-09-14T03:16:36.887Z,958.69
2017-09-14T03:17:46.824Z,958.66
2017-09-14T03:18:57.085Z,958.69
2017-09-14T03:20:07.339Z,958.68
2017-09-14T03:21:16.315Z,958.7
2017-09-14T03:22:26.672Z,958.69
2017-09-14T03:23:36.941Z,958.7
2017-09-14T03:24:47.202Z,958.74
2017-09-14T03:25:56.822Z,958.71
2017-09-14T03:27:07.102Z,958.71
2017-09-14T03:28:17.376Z,958.69
2017-09-14T03:29:26.989Z,958.71
2017-09-14T03:30:37.249Z,958.71
2017-09-14T03:31:47.524Z,958.75
2017-09-14T03:32:57.466Z,958.75
2017-09-14T03:34:07.402Z,958.74
2017-09-14T03:35:17.663Z,958.72
2017-09-14T03:36:27.606Z,958.73
2017-09-14T03:37:37.868Z,958.74
2017-09-14T03:38:48.136Z,958.71
2017-09-14T03:39:58.399Z,958.72
2017-09-14T03:41:08.352Z,958.71
2017-09-14T03:42:18.622Z,958.69
2017-09-14T03:43:28.254Z,958.71
2017-09-14T03:44:38.202Z,958.75
2017-09-14T03:45:48.484Z,958.73
2017-09-14T03:46:58.761Z,958.71
2017-09-14T03:48:09.043Z,958.73
2017-09-14T03:49:19.320Z,958.76
2017-09-14T03:50:29.597Z,958.73
2017-09-14T03:51:39.872Z,958.73
2017-09-14T03:52:50.153Z,958.74
2017-09-14T03:54:00.431Z,958.81
2017-09-14T03:55:10.712Z,958.78
2017-09-14T03:56:20.987Z,958.77
2017-09-14T03:57:31.267Z,958.78
2017-09-14T03:58:41.213Z,958.79
2017-09-14T03:59:51.484Z,958.83
2017-09-14T04:01:01.439Z,958.83
2017-09-14T04:02:11.393Z,958.82
2017-09-14T04:03:21.021Z,958.81
2017-09-14T04:04:31.294Z,958.84
2017-09-14T04:05:41.565Z,958.87
2017-09-14T04:06:51.844Z,958.92
2017-09-14T04:08:01.798Z,958.87
2017-09-14T04:09:11.757Z,958.88
2017-09-14T04:10:22.031Z,958.9
2017-09-14T04:11:32.308Z,958.9
2017-09-14T04:12:42.581Z,958.91
2017-09-14T04:13:52.533Z,958.91
2017-09-14T04:15:02.500Z,958.92
2017-09-14T04:16:12.779Z,958.88
2017-09-14T04:17:22.738Z,958.88
2017-09-14T04:18:33.013Z,958.93
2017-09-14T04:19:42.963Z,958.89
2017-09-14T04:20:53.233Z,958.88
2017-09-14T04:22:03.185Z,958.9
2017-09-14T04:23:13.136Z,958.91
2017-09-14T04:24:23.416Z,958.9
2017-09-14T04:25:33.688Z,958.9
2017-09-14T04:26:43.649Z,958.94
2017-09-14T04:27:53.603Z,958.91
2017-09-14T04:29:03.877Z,958.95
2017-09-14T04:30:14.147Z,958.89
2017-09-14T04:31:24.426Z,958.93
2017-09-14T04:32:34.705Z,958.93
2017-09-14T04:33:44.656Z,958.94
2017-09-14T04:34:54.930Z,958.95
2017-09-14T04:36:04.888Z,958.98
2017-09-14T04:37:15.164Z,958.98
2017-09-14T04:38:25.435Z,958.99
2017-09-14T04:39:35.387Z,958.97
2017-09-14T04:40:45.658Z,958.97
2017-09-14T04:41:55.940Z,959.01
2017-09-14T04:43:06.214Z,958.97
2017-09-14T04:44:16.517Z,958.98
2017-09-14T04:45:26.192Z,958.97
2017-09-14T04:46:36.480Z,958.98
2017-09-14T04:47:46.775Z,958.96
2017-09-14T04:48:57.056Z,958.97
2017-09-14T04:50:07.330Z,958.95
2017-09-14T04:51:17.610Z,958.96
2017-09-14T04:52:27.893Z,959
2017-09-14T04:53:38.165Z,959.01
2017-09-14T04:54:48.441Z,959.02
2017-09-14T04:55:58.718Z,959.01
2017-09-14T04:57:08.994Z,959.03
2017-09-14T04:58:19.266Z,959.07
2017-09-14T04:59:29.542Z,959.07
2017-09-14T05:00:39.813Z,959.07
2017-09-14T05:01:50.086Z,959.08
2017-09-14T05:03:00.370Z,959.09
2017-09-14T05:04:10.321Z,959.05
2017-09-14T05:05:20.593Z,959.08
2017-09-14T05:06:30.866Z,959.09
2017-09-14T05:07:41.135Z,959.07
2017-09-14T05:08:51.405Z,959.16
2017-09-14T05:10:01.359Z,959.09
2017-09-14T05:11:11.319Z,959.11
2017-09-14T05:12:21.271Z,959.16
2017-09-14T05:13:31.558Z,959.15
2017-09-14T05:14:40.865Z,959.18
2017-09-14T05:15:51.149Z,959.13
2017-09-14T05:17:00.796Z,959.21
2017-09-14T05:18:10.756Z,959.21
2017-09-14T05:19:21.028Z,959.2
2017-09-14T05:20:30.978Z,959.21
2017-09-14T05:21:40.941Z,959.2
2017-09-14T05:22:51.264Z,959.19
2017-09-14T05:24:01.541Z,959.17
2017-09-14T05:25:11.497Z,959.2
2017-09-14T05:26:21.779Z,959.21
2017-09-14T05:27:31.736Z,959.25
2017-09-14T05:28:41.368Z,959.23
2017-09-14T05:29:51.649Z,959.24
2017-09-14T05:31:01.607Z,959.26
2017-09-14T05:32:11.556Z,959.27
2017-09-14T05:33:21.836Z,959.26
2017-09-14T05:34:31.785Z,959.22
2017-09-14T05:35:42.055Z,959.25
2017-09-14T05:36:52.330Z,959.22
2017-09-14T05:38:01.962Z,959.27
2017-09-14T05:39:12.240Z,959.26
2017-09-14T05:40:22.201Z,959.22
2017-09-14T05:41:32.149Z,959.25
2017-09-14T05:42:42.102Z,959.26
2017-09-14T05:43:52.383Z,959.23
2017-09-14T05:45:02.657Z,959.21
2017-09-14T05:46:12.299Z,959.22
2017-09-14T05:47:22.580Z,959.2
2017-09-14T05:48:32.526Z,959.23
2017-09-14T05:49:42.795Z,959.19
2017-09-14T05:50:51.779Z,959.21
2017-09-14T05:52:01.729Z,959.19
2017-09-14T05:53:11.999Z,959.21
2017-09-14T05:54:22.272Z,959.24
2017-09-14T05:55:32.545Z,959.22
2017-09-14T05:56:42.821Z,959.27
2017-09-14T05:57:52.455Z,959.22
2017-09-14T05:59:02.763Z,959.28
2017-09-14T06:00:13.042Z,959.26
2017-09-14T06:01:23.314Z,959.24
2017-09-14T06:02:33.590Z,959.26
2017-09-14T06:03:43.228Z,959.27
2017-09-14T06:04:53.180Z,959.29
2017-09-14T06:06:03.132Z,959.32
2017-09-14T06:07:13.414Z,959.32
2017-09-14T06:08:23.376Z,959.34
2017-09-14T06:09:33.331Z,959.34
2017-09-14T06:10:43.604Z,959.37
2017-09-14T06:11:53.877Z,959.4
2017-09-14T06:13:03.825Z,959.37
2017-09-14T06:14:14.097Z,959.38
2017-09-14T06:15:24.374Z,959.39
2017-09-14T06:16:34.325Z,959.38
2017-09-14T06:17:43.954Z,959.43
2017-09-14T06:18:54.237Z,959.41
2017-09-14T06:20:04.191Z,959.39
2017-09-14T06:21:14.464Z,959.45
2017-09-14T06:22:24.753Z,959.46
2017-09-14T06:23:34.701Z,959.46
2017-09-14T06:24:44.656Z,959.46
2017-09-14T06:25:54.937Z,959.49
2017-09-14T06:27:04.889Z,959.48
2017-09-14T06:28:14.522Z,959.53
2017-09-14T06:29:24.470Z,959.54
2017-09-14T06:30:34.424Z,959.57
2017-09-14T06:31:44.371Z,959.53
2017-09-14T06:32:54.329Z,959.58
2017-09-14T06:34:04.605Z,959.57
2017-09-14T06:35:14.557Z,959.53
2017-09-14T06:36:24.510Z,959.57
2017-09-14T06:37:34.466Z,959.54
2017-09-14T06:38:44.737Z,959.53
2017-09-14T06:39:54.700Z,959.55
2017-09-14T06:41:04.996Z,959.56
2017-09-14T06:42:15.269Z,959.59
2017-09-14T06:43:25.542Z,959.6
2017-09-14T06:44:35.495Z,959.65
2017-09-14T06:45:45.769Z,959.6
2017-09-14T06:46:56.048Z,959.69
2017-09-14T06:48:06.008Z,959.65
2017-09-14T06:49:15.965Z,959.66
2017-09-14T06:50:26.272Z,959.67
2017-09-14T06:51:36.541Z,959.67
2017-09-14T06:52:46.173Z,959.67
2017-09-14T06:53:56.130Z,959.71
2017-09-14T06:55:06.414Z,959.7
2017-09-14T06:56:16.046Z,959.7
2017-09-14T06:57:26.327Z,959.71
2017-09-14T06:58:36.607Z,959.73
2017-09-14T06:59:46.888Z,959.73
2017-09-14T07:00:57.161Z,959.74
2017-09-14T07:02:07.431Z,959.75
2017-09-14T07:03:17.707Z,959.75
2017-09-14T07:04:27.986Z,959.72
2017-09-14T07:05:37.937Z,959.75
2017-09-14T07:06:47.886Z,959.77
2017-09-14T07:07:58.159Z,959.75
2017-09-14T07:09:08.432Z,959.77
2017-09-14T07:10:18.706Z,959.77
2017-09-14T07:11:28.336Z,959.78
2017-09-14T07:12:38.287Z,959.8
2017-09-14T07:13:48.247Z,959.8
2017-09-14T07:14:58.520Z,959.82
2017-09-14T07:16:08.473Z,959.84
2017-09-14T07:17:18.749Z,959.87
2017-09-14T07:18:29.035Z,959.87
2017-09-14T07:19:38.993Z,959.89
2017-09-14T07:20:48.945Z,959.9
2017-09-14T07:21:59.222Z,959.89
2017-09-14T07:23:08.857Z,959.85
2017-09-14T07:24:19.154Z,959.88
2017-09-14T07:25:29.123Z,959.9
2017-09-14T07:26:39.401Z,959.88
2017-09-14T07:27:49.031Z,959.89
2017-09-14T07:28:59.307Z,959.88
2017-09-14T07:30:09.264Z,959.84
2017-09-14T07:31:19.536Z,959.85
2017-09-14T07:32:29.843Z,959.89
2017-09-14T07:33:40.123Z,959.93
2017-09-14T07:34:50.079Z,959.94
2017-09-14T07:36:00.052Z,959.91
2017-09-14T07:37:10.341Z,959.87
2017-09-14T07:38:19.649Z,959.9
2017-09-14T07:39:29.931Z,959.87
2017-09-14T07:40:40.227Z,959.95
2017-09-14T07:41:50.507Z,959.95
2017-09-14T07:43:00.790Z,959.97
2017-09-14T07:44:10.422Z,959.94
2017-09-14T07:45:20.381Z,960.03
2017-09-14T07:46:30.334Z,959.98
2017-09-14T07:47:40.610Z,960.05
2017-09-14T07:48:50.569Z,960.04
2017-09-14T07:50:00.855Z,960.05
2017-09-14T07:51:10.816Z,960.06
2017-09-14T07:52:21.098Z,960.09
2017-09-14T07:53:31.052Z,960.06
2017-09-14T07:54:41.327Z,960.1
2017-09-14T07:55:50.996Z,960.1
2017-09-14T07:57:00.630Z,960.14
2017-09-14T07:58:10.585Z,960.12
2017-09-14T07:59:20.550Z,960.19
2017-09-14T08:00:30.828Z,960.18
2017-09-14T08:01:41.106Z,960.19
2017-09-14T08:02:51.385Z,960.18
2017-09-14T08:04:01.665Z,960.22
2017-09-14T08:05:11.628Z,960.25
2017-09-14T08:06:21.905Z,960.25
2017-09-14T08:07:32.194Z,960.26
2017-09-14T08:08:42.152Z,960.3
2017-09-14T08:09:52.429Z,960.32
2017-09-14T08:11:02.066Z,960.32
2017-09-14T08:12:12.356Z,960.29
2017-09-14T08:13:22.635Z,960.37
2017-09-14T08:14:32.912Z,960.35
2017-09-14T08:15:43.186Z,960.33
2017-09-14T08:16:53.140Z,960.36
2017-09-14T08:18:03.098Z,960.38
2017-09-14T08:19:13.071Z,960.37
2017-09-14T08:20:23.353Z,960.36
2017-09-14T08:21:33.629Z,960.37
2017-09-14T08:22:43.593Z,960.38
2017-09-14T08:23:53.869Z,960.4
2017-09-14T08:25:03.498Z,960.4
2017-09-14T08:26:13.776Z,960.42
2017-09-14T08:27:24.054Z,960.48
2017-09-14T08:28:33.708Z,960.48
2017-09-14T08:29:43.351Z,960.43
2017-09-14T08:30:53.632Z,960.46
2017-09-14T08:32:03.593Z,960.48
2017-09-14T08:33:13.553Z,960.52
2017-09-14T08:34:23.510Z,960.54
2017-09-14T08:35:33.790Z,960.56
2017-09-14T08:36:44.070Z,960.57
2017-09-14T08:37:54.348Z,960.58
2017-09-14T08:39:04.305Z,960.6
2017-09-14T08:40:14.267Z,960.58
2017-09-14T08:41:24.546Z,960.56
2017-09-14T08:42:34.846Z,960.55
2017-09-14T08:43:44.806Z,960.59
2017-09-14T08:44:54.779Z,960.58
2017-09-14T08:46:05.073Z,960.58
2017-09-14T08:47:15.031Z,960.56
2017-09-14T08:48:24.987Z,960.56
2017-09-14T08:49:34.943Z,960.6
2017-09-14T08:50:45.224Z,960.65
2017-09-14T08:51:55.509Z,960.6
2017-09-14T08:53:05.783Z,960.63
2017-09-14T08:54:16.060Z,960.65
2017-09-14T08:55:26.011Z,960.62
2017-09-14T08:56:36.294Z,960.62
2017-09-14T08:57:46.244Z,960.6
2017-09-14T08:58:56.200Z,960.62
2017-09-14T09:00:06.170Z,960.66
2017-09-14T09:01:16.450Z,960.67
2017-09-14T09:02:26.408Z,960.67
2017-09-14T09:03:36.696Z,960.67
2017-09-14T09:04:46.650Z,960.67
2017-09-14T09:05:56.929Z,960.69
2017-09-14T09:07:06.887Z,960.65
2017-09-14T09:08:16.521Z,960.65
2017-09-14T09:09:26.801Z,960.67
2017-09-14T09:10:36.437Z,960.69
2017-09-14T09:11:46.716Z,960.71
2017-09-14T09:12:56.670Z,960.69
2017-09-14T09:14:06.624Z,960.69
2017-09-14T09:15:16.579Z,960.7
2017-09-14T09:16:26.211Z,960.73
2017-09-14T09:17:36.176Z,960.76
2017-09-14T09:18:46.147Z,960.74
2017-09-14T09:19:56.432Z,960.81
2017-09-14T09:21:06.409Z,960.82
2017-09-14T09:22:16.690Z,960.79
2017-09-14T09:23:26.332Z,960.8
2017-09-14T09:24:36.294Z,960.79
2017-09-14T09:25:46.571Z,960.81
2017-09-14T09:26:56.850Z,960.84
2017-09-14T09:28:06.811Z,960.81
2017-09-14T09:29:16.770Z,960.83
2017-09-14T09:30:26.729Z,960.84
2017-09-14T09:31:36.041Z,960.82
2017-09-14T09:32:45.677Z,960.82
2017-09-14T09:33:55.957Z,960.85
2017-09-14T09:35:06.236Z,960.89
2017-09-14T09:36:16.188Z,960.84
2017-09-14T09:37:26.468Z,960.85
2017-09-14T09:38:36.436Z,960.89
2017-09-14T09:39:46.718Z,960.84
2017-09-14T09:40:56.682Z,960.84
2017-09-14T09:42:06.961Z,960.87
2017-09-14T09:43:16.917Z,960.86
2017-09-14T09:44:26.873Z,960.83
2017-09-14T09:45:36.515Z,960.86
2017-09-14T09:46:46.793Z,960.88
2017-09-14T09:47:56.750Z,960.87
2017-09-14T09:49:07.034Z,960.93
2017-09-14T09:50:16.664Z,960.91
2017-09-14T09:51:26.624Z,960.94
2017-09-14T09:52:36.910Z,960.89
2017-09-14T09:53:46.553Z,960.9
2017-09-14T09:54:56.512Z,960.85
2017-09-14T09:56:06.467Z,960.89
2017-09-14T09:57:16.746Z,960.88
2017-09-14T09:58:26.706Z,960.93
2017-09-14T09:59:36.984Z,960.92
2017-09-14T10:00:46.941Z,960.91
2017-09-14T10:01:56.901Z,960.94
2017-09-14T10:03:06.540Z,960.96
2017-09-14T10:04:16.821Z,960.98
2017-09-14T10:05:26.782Z,960.99
2017-09-14T10:06:37.066Z,960.95
2017-09-14T10:07:47.346Z,960.99
2017-09-14T10:08:57.300Z,961.04
2017-09-14T10:10:06.982Z,961.03
2017-09-14T10:11:16.539Z,961.06
2017-09-14T10:12:26.497Z,961.03
2017-09-14T10:13:36.474Z,960.96
2017-09-14T10:14:46.786Z,960.99
2017-09-14T10:15:56.761Z,960.99
2017-09-14T10:17:07.041Z,960.97
2017-09-14T10:18:16.685Z,960.95
2017-09-14T10:19:26.972Z,960.98
2017-09-14T10:20:36.930Z,960.97
2017-09-14T10:21:47.210Z,960.97
2017-09-14T10:22:57.494Z,960.97
2017-09-14T10:24:07.777Z,960.97
2017-09-14T10:25:18.060Z,960.98
2017-09-14T10:26:28.342Z,960.97
2017-09-14T10:27:38.303Z,960.97
2017-09-14T10:28:47.942Z,961.01
2017-09-14T10:29:57.901Z,960.99
2017-09-14T10:31:07.861Z,960.98
2017-09-14T10:32:17.823Z,961.02
2017-09-14T10:33:27.802Z,960.97
2017-09-14T10:34:37.774Z,960.99
2017-09-14T10:35:47.735Z,960.99
2017-09-14T10:36:57.694Z,960.97
2017-09-14T10:38:08.010Z,960.98
2017-09-14T10:39:18.288Z,960.91
2017-09-14T10:40:28.253Z,960.97
2017-09-14T10:41:38.537Z,960.98
2017-09-14T10:42:48.184Z,960.95
2017-09-14T10:43:57.823Z,960.94
2017-09-14T10:45:07.779Z,960.98
2017-09-14T10:46:17.783Z,960.98
2017-09-14T10:47:27.747Z,961
2017-09-14T10:48:38.029Z,961.02
2017-09-14T10:49:47.991Z,961.03
2017-09-14T10:50:57.962Z,961
2017-09-14T10:52:08.251Z,960.99
2017-09-14T10:53:18.537Z,961.02
2017-09-14T10:54:28.495Z,961.03
2017-09-14T10:55:38.451Z,960.99
2017-09-14T10:56:48.416Z,960.97
2017-09-14T10:57:58.065Z,960.99
2017-09-14T10:59:08.348Z,961
2017-09-14T11:00:18.300Z,961.02
2017-09-14T11:01:28.579Z,960.99
2017-09-14T11:02:38.860Z,961
2017-09-14T11:03:49.142Z,961
2017-09-14T11:04:58.785Z,961.03
2017-09-14T11:06:09.081Z,961.07
2017-09-14T11:07:19.039Z,961.06
2017-09-14T11:08:29.003Z,961.17
2017-09-14T11:09:38.643Z,961.21
2017-09-14T11:10:48.928Z,961.24
2017-09-14T11:11:58.568Z,961.21
2017-09-14T11:13:07.883Z,961.12
2017-09-14T11:14:18.168Z,961.19
2017-09-14T11:15:27.482Z,961.11
2017-09-14T11:16:37.126Z,961.08
2017-09-14T11:17:47.427Z,961.1
2017-09-14T11:18:57.711Z,961.12
2017-09-14T11:20:07.352Z,961.09
2017-09-14T11:21:17.660Z,961.14
2017-09-14T11:22:27.640Z,961.13
2017-09-14T11:23:37.286Z,961.12
2017-09-14T11:24:47.575Z,961.16
2017-09-14T11:25:57.537Z,961.13
2017-09-14T11:27:07.497Z,961.1
2017-09-14T11:28:17.476Z,960.99
2017-09-14T11:29:27.442Z,960.93
2017-09-14T11:30:37.407Z,961.07
2017-09-14T11:31:47.379Z,961.03
2017-09-14T11:32:57.670Z,961.08
2017-09-14T11:34:07.956Z,961.05
2017-09-14T11:35:18.250Z,961.04
2017-09-14T11:36:28.545Z,961.08
2017-09-14T11:37:38.858Z,961.07
2017-09-14T11:38:49.145Z,961.18
2017-09-14T11:39:59.119Z,961.12
2017-09-14T11:41:09.406Z,961.18
2017-09-14T11:42:19.366Z,961.16
2017-09-14T11:43:29.660Z,961.19
2017-09-14T11:44:39.954Z,961.27
2017-09-14T11:45:50.237Z,961.28
2017-09-14T11:47:00.523Z,961.31
2017-09-14T11:48:10.162Z,961.35
2017-09-14T11:49:19.802Z,961.39
2017-09-14T11:50:30.088Z,961.37
2017-09-14T11:51:40.380Z,961.4
2017-09-14T11:52:50.665Z,961.38
2017-09-14T11:54:00.633Z,961.37
2017-09-14T11:55:10.271Z,961.45
2017-09-14T11:56:19.905Z,961.46
2017-09-14T11:57:29.867Z,961.43
2017-09-14T11:58:39.826Z,961.43
2017-09-14T11:59:50.117Z,961.42
2017-09-14T12:00:59.757Z,961.37
2017-09-14T12:02:09.712Z,961.33
2017-09-14T12:03:19.991Z,961.3
2017-09-14T12:04:29.632Z,961.28
2017-09-14T12:05:39.590Z,961.26
2017-09-14T12:06:49.881Z,961.34
2017-09-14T12:08:00.171Z,961.33
2017-09-14T12:09:10.133Z,961.31
2017-09-14T12:10:19.769Z,961.34
2017-09-14T12:11:29.737Z,961.4
2017-09-14T12:12:39.710Z,961.41
2017-09-14T12:13:49.990Z,961.39
2017-09-14T12:15:00.274Z,961.38
2017-09-14T12:16:10.560Z,961.41
2017-09-14T12:17:20.517Z,961.49
2017-09-14T12:18:30.490Z,961.45
2017-09-14T12:19:40.129Z,961.44
2017-09-14T12:20:50.088Z,961.44
2017-09-14T12:22:00.054Z,961.44
2017-09-14T12:23:09.370Z,961.44
2017-09-14T12:24:19.328Z,961.47
2017-09-14T12:25:29.291Z,961.48
2017-09-14T12:26:39.574Z,961.45
2017-09-14T12:27:49.210Z,961.47
2017-09-14T12:28:59.495Z,961.44
2017-09-14T12:30:09.460Z,961.44
2017-09-14T12:31:19.419Z,961.47
2017-09-14T12:32:29.384Z,961.49
2017-09-14T12:33:39.021Z,961.52
2017-09-14T12:34:49.310Z,961.48
2017-09-14T12:35:59.597Z,961.53
2017-09-14T12:37:09.563Z,961.51
2017-09-14T12:38:19.843Z,961.5
2017-09-14T12:39:29.800Z,961.53
2017-09-14T12:40:39.112Z,961.5
2017-09-14T12:41:48.747Z,961.5
2017-09-14T12:42:59.039Z,961.52
2017-09-14T12:44:09.000Z,961.54
2017-09-14T12:45:18.635Z,961.54
2017-09-14T12:46:28.593Z,961.59
2017-09-14T12:47:38.874Z,961.59
2017-09-14T12:48:48.843Z,961.57
2017-09-14T12:49:58.803Z,961.59
2017-09-14T12:51:08.755Z,961.6
2017-09-14T12:52:18.399Z,961.61
2017-09-14T12:53:28.371Z,961.64
2017-09-14T12:54:38.014Z,961.67
2017-09-14T12:55:47.978Z,961.64
2017-09-14T12:56:57.947Z,961.65
2017-09-14T12:58:07.587Z,961.68
2017-09-14T12:59:17.542Z,961.69
2017-09-14T13:00:27.182Z,961.67
2017-09-14T13:01:37.146Z,961.72
2017-09-14T13:02:46.784Z,961.68
2017-09-14T13:03:57.066Z,961.68
2017-09-14T13:05:07.039Z,961.68
2017-09-14T13:06:16.998Z,961.63
2017-09-14T13:07:27.288Z,961.69
2017-09-14T13:08:37.573Z,961.71
2017-09-14T13:09:47.210Z,961.73
2017-09-14T13:10:57.171Z,961.72
2017-09-14T13:12:06.810Z,961.75
2017-09-14T13:13:17.104Z,961.74
2017-09-14T13:14:27.064Z,961.8
2017-09-14T13:15:37.346Z,961.79
2017-09-14T13:16:47.636Z,961.81
2017-09-14T13:17:57.276Z,961.76
2017-09-14T13:19:07.556Z,961.77
2017-09-14T13:20:17.198Z,961.78
2017-09-14T13:21:27.158Z,961.78
2017-09-14T13:22:37.119Z,961.81
2017-09-14T13:23:47.413Z,961.77
2017-09-14T13:24:57.702Z,961.76
2017-09-14T13:26:07.997Z,961.75
2017-09-14T13:27:17.988Z,961.76
2017-09-14T13:28:27.949Z,961.77
2017-09-14T13:29:38.236Z,961.78
2017-09-14T13:30:48.202Z,961.74
2017-09-14T13:31:58.165Z,961.77
2017-09-14T13:33:07.818Z,961.75
2017-09-14T13:34:17.793Z,961.76
2017-09-14T13:35:27.760Z,961.78
2017-09-14T13:36:37.762Z,961.76
2017-09-14T13:37:47.726Z,961.8
2017-09-14T13:38:58.016Z,961.83
2017-09-14T13:40:07.978Z,961.84
2017-09-14T13:41:17.624Z,961.85
2017-09-14T13:42:27.608Z,961.86
2017-09-14T13:43:37.994Z,961.88
2017-09-14T13:44:48.431Z,961.89
2017-09-14T13:45:59.420Z,961.89
2017-09-14T13:47:09.652Z,961.86
2017-09-14T13:48:19.535Z,961.86
2017-09-14T13:49:29.978Z,961.91
2017-09-14T13:50:39.707Z,961.96
2017-09-14T13:51:49.351Z,961.93
2017-09-14T13:52:59.056Z,961.94
2017-09-14T13:54:09.337Z,961.94
2017-09-14T13:55:19.625Z,961.94
2017-09-14T13:56:29.589Z,961.95
2017-09-14T13:57:39.871Z,961.95
2017-09-14T13:58:49.512Z,961.94
2017-09-14T13:59:59.531Z,961.91
2017-09-14T14:01:09.178Z,961.89
2017-09-14T14:02:18.868Z,961.92
2017-09-14T14:03:28.836Z,961.96
2017-09-14T14:04:39.120Z,961.93
2017-09-14T14:05:48.768Z,961.93
2017-09-14T14:06:58.408Z,961.96
2017-09-14T14:08:08.378Z,961.99
2017-09-14T14:09:18.348Z,962.01
2017-09-14T14:10:28.637Z,962
2017-09-14T14:11:38.603Z,962.01
2017-09-14T14:12:48.560Z,962.02
2017-09-14T14:13:58.532Z,962.04
2017-09-14T14:15:08.179Z,962.04
2017-09-14T14:16:18.149Z,962
2017-09-14T14:17:28.113Z,961.97
2017-09-14T14:18:38.392Z,961.9
2017-09-14T14:19:48.355Z,961.9
2017-09-14T14:20:58.314Z,961.92
2017-09-14T14:22:08.290Z,961.95
2017-09-14T14:23:17.931Z,962
2017-09-14T14:24:28.217Z,962.01
2017-09-14T14:25:37.853Z,962
2017-09-14T14:26:47.814Z,962.04
2017-09-14T14:27:57.134Z,962.02
2017-09-14T14:29:07.423Z,962.02
2017-09-14T14:30:16.414Z,962.05
2017-09-14T14:31:26.374Z,962
2017-09-14T14:32:36.331Z,961.99
2017-09-14T14:33:45.969Z,962.02
2017-09-14T14:34:56.252Z,961.99
2017-09-14T14:36:06.535Z,961.97
2017-09-14T14:37:16.498Z,962
2017-09-14T14:38:26.461Z,962.02
2017-09-14T14:39:36.425Z,962.01
2017-09-14T14:40:46.411Z,961.98
2017-09-14T14:41:56.385Z,961.98